createdAt,value
2022-10-25T00:00:04.066Z,9.747527
2022-10-25T00:01:04.116Z,9.747483
2022-10-25T00:02:04.137Z,9.747381
2022-10-25T00:03:04.037Z,9.747400
2022-10-25T00:04:04.068Z,9.747531
2022-10-25T00:05:04.049Z,9.747595
2022-10-25T00:06:04.034Z,9.747589
2022-10-25T00:07:04.005Z,9.747467
2022-10-25T00:08:03.999Z,9.747515
2022-10-25T00:09:04.017Z,9.747439
2022-10-25T00:10:04.021Z,9.747567
2022-10-25T00:11:03.978Z,9.747506
2022-10-25T00:12:03.974Z,9.747491
2022-10-25T00:13:03.967Z,9.747481
2022-10-25T00:14:03.965Z,9.747398
2022-10-25T00:15:03.981Z,9.747329
2022-10-25T00:16:03.965Z,9.747384
2022-10-25T00:17:03.931Z,9.747495
2022-10-25T00:18:03.915Z,9.747365
2022-10-25T00:19:04.170Z,9.747504
2022-10-25T00:20:03.970Z,9.747385
2022-10-25T00:21:03.894Z,9.747424
2022-10-25T00:22:03.898Z,9.747490
2022-10-25T00:23:03.889Z,9.747478
2022-10-25T00:24:03.876Z,9.747459
2022-10-25T00:25:03.913Z,9.747448
2022-10-25T00:26:03.872Z,9.747433
2022-10-25T00:27:03.889Z,9.747381
2022-10-25T00:28:03.847Z,9.747311
2022-10-25T00:29:03.830Z,9.747265
2022-10-25T00:30:03.852Z,9.747355
2022-10-25T00:31:03.828Z,9.747372
2022-10-25T00:32:03.809Z,9.747397
2022-10-25T00:33:03.802Z,9.747465
2022-10-25T00:34:03.801Z,9.747444
2022-10-25T00:35:03.816Z,9.747454
2022-10-25T00:36:03.793Z,9.747343
2022-10-25T00:37:03.774Z,9.747383
2022-10-25T00:38:03.786Z,9.747331
2022-10-25T00:39:03.775Z,9.747470
2022-10-25T00:40:03.834Z,9.747490
2022-10-25T00:41:03.742Z,9.747484
2022-10-25T00:42:03.744Z,9.747494
2022-10-25T00:43:03.727Z,9.747477
2022-10-25T00:44:03.720Z,9.747522
2022-10-25T00:45:03.755Z,9.747484
2022-10-25T00:46:03.708Z,9.747497
2022-10-25T00:47:03.708Z,9.747610
2022-10-25T00:48:03.719Z,9.747499
2022-10-25T00:49:03.679Z,9.747476
2022-10-25T00:50:03.695Z,9.747560
2022-10-25T00:51:03.661Z,9.747504
2022-10-25T00:52:03.657Z,9.747531
2022-10-25T00:53:03.651Z,9.747474
2022-10-25T00:54:03.629Z,9.747551
2022-10-25T00:55:03.676Z,9.747450
2022-10-25T00:56:03.624Z,9.747433
2022-10-25T00:57:03.657Z,9.747540
2022-10-25T00:58:03.606Z,9.747447
2022-10-25T00:59:03.595Z,9.747458
2022-10-25T01:00:03.644Z,9.747498
2022-10-25T01:01:03.623Z,9.747511
2022-10-25T01:02:03.706Z,9.747463
2022-10-25T01:03:03.569Z,9.747384
2022-10-25T01:04:03.587Z,9.747399
2022-10-25T01:05:03.549Z,9.747374
2022-10-25T01:06:03.588Z,9.747448
2022-10-25T01:07:03.550Z,9.747499
2022-10-25T01:08:03.604Z,9.747467
2022-10-25T01:09:03.530Z,9.747511
2022-10-25T01:10:03.568Z,9.747449
2022-10-25T01:11:03.606Z,9.747498
2022-10-25T01:12:03.506Z,9.747494
2022-10-25T01:13:03.611Z,9.747412
2022-10-25T01:14:03.500Z,9.747494
2022-10-25T01:15:03.505Z,9.747467
2022-10-25T01:16:03.517Z,9.747446
2022-10-25T01:17:03.458Z,9.747506
2022-10-25T01:18:03.462Z,9.747433
2022-10-25T01:19:03.441Z,9.747482
2022-10-25T01:20:03.454Z,9.747533
2022-10-25T01:21:03.425Z,9.747454
2022-10-25T01:22:03.420Z,9.747493
2022-10-25T01:23:03.458Z,9.747429
2022-10-25T01:24:03.401Z,9.747499
2022-10-25T01:25:03.413Z,9.747511
2022-10-25T01:26:03.402Z,9.747423
2022-10-25T01:27:03.401Z,9.747430
2022-10-25T01:28:03.532Z,9.747659
2022-10-25T01:29:03.414Z,9.747584
2022-10-25T01:30:03.385Z,9.747613
2022-10-25T01:31:03.357Z,9.747495
2022-10-25T01:32:03.360Z,9.747581
2022-10-25T01:33:03.361Z,9.747456
2022-10-25T01:34:03.328Z,9.747324
2022-10-25T01:35:03.369Z,9.747415
2022-10-25T01:36:03.399Z,9.747454
2022-10-25T01:37:03.303Z,9.747385
2022-10-25T01:38:03.300Z,9.747438
2022-10-25T01:39:03.288Z,9.747449
2022-10-25T01:40:03.320Z,9.747418
2022-10-25T01:41:03.274Z,9.747576
2022-10-25T01:42:03.275Z,9.747580
2022-10-25T01:43:03.263Z,9.747636
2022-10-25T01:44:03.272Z,9.747582
2022-10-25T01:45:03.457Z,9.747475
2022-10-25T01:46:03.282Z,9.747492
2022-10-25T01:47:03.244Z,9.747645
2022-10-25T01:48:03.216Z,9.747550
2022-10-25T01:49:03.222Z,9.747460
2022-10-25T01:50:03.205Z,9.747462
2022-10-25T01:51:03.226Z,9.747535
2022-10-25T01:52:03.195Z,9.747464
2022-10-25T01:53:03.197Z,9.747467
2022-10-25T01:54:03.171Z,9.747402
2022-10-25T01:55:03.166Z,9.747387
2022-10-25T01:56:03.187Z,9.747328
2022-10-25T01:57:03.157Z,9.747188
2022-10-25T01:58:03.141Z,9.747359
2022-10-25T01:59:03.134Z,9.747396
2022-10-25T02:00:03.139Z,9.747361
2022-10-25T02:01:03.275Z,9.747426
2022-10-25T02:02:03.116Z,9.747437
2022-10-25T02:03:03.103Z,9.747476
2022-10-25T02:04:03.097Z,9.747413
2022-10-25T02:05:03.088Z,9.747394
2022-10-25T02:06:03.157Z,9.747438
2022-10-25T02:07:03.073Z,9.747584
2022-10-25T02:08:04.073Z,9.747568
2022-10-25T02:09:03.058Z,9.747624
2022-10-25T02:10:03.177Z,9.747605
2022-10-25T02:11:03.082Z,9.747538
2022-10-25T02:12:03.046Z,9.747501
2022-10-25T02:13:03.033Z,9.747580
2022-10-25T02:14:03.013Z,9.747532
2022-10-25T02:15:03.019Z,9.747520
2022-10-25T02:16:03.027Z,9.747506
2022-10-25T02:17:03.016Z,9.747493
2022-10-25T02:18:02.996Z,9.747534
2022-10-25T02:19:02.980Z,9.747459
2022-10-25T02:20:02.994Z,9.747416
2022-10-25T02:21:02.991Z,9.747474
2022-10-25T02:22:02.973Z,9.747488
2022-10-25T02:23:03.023Z,9.747516
2022-10-25T02:24:02.951Z,9.747511
2022-10-25T02:25:02.937Z,9.747454
2022-10-25T02:26:02.948Z,9.747408
2022-10-25T02:27:02.942Z,9.747450
2022-10-25T02:28:02.909Z,9.747492
2022-10-25T02:29:02.896Z,9.747478
2022-10-25T02:30:02.905Z,9.747532
2022-10-25T02:31:02.931Z,9.747458
2022-10-25T02:32:02.881Z,9.747374
2022-10-25T02:33:02.869Z,9.747438
2022-10-25T02:34:02.869Z,9.747350
2022-10-25T02:35:02.901Z,9.747454
2022-10-25T02:36:02.886Z,9.747404
2022-10-25T02:37:02.831Z,9.747418
2022-10-25T02:38:02.826Z,9.747570
2022-10-25T02:39:02.830Z,9.747530
2022-10-25T02:40:02.819Z,9.747470
2022-10-25T02:41:02.879Z,9.747493
2022-10-25T02:42:02.804Z,9.747346
2022-10-25T02:43:02.801Z,9.747436
2022-10-25T02:44:02.798Z,9.747395
2022-10-25T02:45:02.783Z,9.747413
2022-10-25T02:46:02.810Z,9.747407
2022-10-25T02:47:02.763Z,9.747327
2022-10-25T02:48:02.746Z,9.747395
2022-10-25T02:49:02.752Z,9.747467
2022-10-25T02:50:02.730Z,9.747513
2022-10-25T02:51:02.755Z,9.747513
2022-10-25T02:52:02.722Z,9.747417
2022-10-25T02:53:02.703Z,9.747486
2022-10-25T02:54:02.713Z,9.747350
2022-10-25T02:55:02.695Z,9.747418
2022-10-25T02:56:02.718Z,9.747423
2022-10-25T02:57:02.679Z,9.747502
2022-10-25T02:58:02.667Z,9.747480
2022-10-25T02:59:02.667Z,9.747486
2022-10-25T03:00:02.744Z,9.747411
2022-10-25T03:01:02.759Z,9.747407
2022-10-25T03:02:02.703Z,9.747422
2022-10-25T03:03:02.627Z,9.747438
2022-10-25T03:04:02.631Z,9.747412
2022-10-25T03:05:02.639Z,9.747441
2022-10-25T03:06:02.613Z,9.747405
2022-10-25T03:07:02.641Z,9.747401
2022-10-25T03:08:02.592Z,9.747395
2022-10-25T03:09:02.587Z,9.747450
2022-10-25T03:10:02.575Z,9.747439
2022-10-25T03:11:02.571Z,9.747325
2022-10-25T03:12:02.592Z,9.747379
2022-10-25T03:13:02.557Z,9.747366
2022-10-25T03:14:02.564Z,9.747401
2022-10-25T03:15:02.549Z,9.747356
2022-10-25T03:16:02.528Z,9.747457
2022-10-25T03:17:02.555Z,9.747518
2022-10-25T03:18:02.536Z,9.747442
2022-10-25T03:19:02.522Z,9.747423
2022-10-25T03:20:02.495Z,9.747394
2022-10-25T03:21:02.494Z,9.747355
2022-10-25T03:22:02.521Z,9.747388
2022-10-25T03:23:02.473Z,9.747471
2022-10-25T03:24:02.469Z,9.747434
2022-10-25T03:25:02.573Z,9.747492
2022-10-25T03:26:02.451Z,9.747455
2022-10-25T03:27:02.481Z,9.747397
2022-10-25T03:28:02.464Z,9.747448
2022-10-25T03:29:02.434Z,9.747449
2022-10-25T03:30:02.431Z,9.747483
2022-10-25T03:31:02.416Z,9.747484
2022-10-25T03:32:02.479Z,9.747500
2022-10-25T03:33:02.422Z,9.747513
2022-10-25T03:34:02.402Z,9.747359
2022-10-25T03:35:02.385Z,9.747415
2022-10-25T03:36:02.413Z,9.747458
2022-10-25T03:37:02.466Z,9.747432
2022-10-25T03:38:02.370Z,9.747404
2022-10-25T03:39:02.379Z,9.747340
2022-10-25T03:40:02.374Z,9.747475
2022-10-25T03:41:02.341Z,9.747348
2022-10-25T03:42:02.365Z,9.747399
2022-10-25T03:43:02.343Z,9.747495
2022-10-25T03:44:02.331Z,9.747478
2022-10-25T03:45:02.312Z,9.747326
2022-10-25T03:46:02.313Z,9.747391
2022-10-25T03:47:02.321Z,9.747448
2022-10-25T03:48:02.303Z,9.747411
2022-10-25T03:49:02.368Z,9.747406
2022-10-25T03:50:02.280Z,9.747336
2022-10-25T03:51:02.264Z,9.747390
2022-10-25T03:52:04.967Z,9.747405
2022-10-25T03:53:02.317Z,9.747433
2022-10-25T03:54:02.241Z,9.747391
2022-10-25T03:55:02.236Z,9.747359
2022-10-25T03:56:02.250Z,9.747358
2022-10-25T03:57:02.283Z,9.747480
2022-10-25T03:58:02.204Z,9.747455
2022-10-25T03:59:02.224Z,9.747394
2022-10-25T04:00:02.200Z,9.747322
2022-10-25T04:01:02.274Z,9.747321
2022-10-25T04:02:02.314Z,9.747317
2022-10-25T04:03:02.734Z,9.747346
2022-10-25T04:04:02.174Z,9.747267
2022-10-25T04:05:02.154Z,9.747296
2022-10-25T04:06:02.141Z,9.747297
2022-10-25T04:07:02.165Z,9.747373
2022-10-25T04:08:02.127Z,9.747396
2022-10-25T04:09:02.188Z,9.747318
2022-10-25T04:10:02.122Z,9.747225
2022-10-25T04:11:02.095Z,9.747461
2022-10-25T04:12:02.146Z,9.747416
2022-10-25T04:13:02.090Z,9.747392
2022-10-25T04:14:02.123Z,9.747450
2022-10-25T04:15:02.079Z,9.747401
2022-10-25T04:16:02.073Z,9.747313
2022-10-25T04:17:02.081Z,9.747518
2022-10-25T04:18:02.050Z,9.747346
2022-10-25T04:19:02.107Z,9.747100
2022-10-25T04:20:02.052Z,9.747158
2022-10-25T04:21:02.039Z,9.747208
2022-10-25T04:22:02.051Z,9.747141
2022-10-25T04:23:02.014Z,9.747042
2022-10-25T04:24:04.294Z,9.747212
2022-10-25T04:25:03.056Z,9.747678
2022-10-25T04:26:01.995Z,9.747590
2022-10-25T04:27:02.069Z,9.747440
2022-10-25T04:28:01.984Z,9.747315
2022-10-25T04:29:01.966Z,9.747489
2022-10-25T04:30:01.969Z,9.747268
2022-10-25T04:31:01.952Z,9.747408
2022-10-25T04:32:02.983Z,9.747306
2022-10-25T04:33:01.933Z,9.747378
2022-10-25T04:34:01.925Z,9.747469
2022-10-25T04:35:01.915Z,9.747358
2022-10-25T04:36:01.937Z,9.747277
2022-10-25T04:37:01.931Z,9.747396
2022-10-25T04:38:01.893Z,9.747383
2022-10-25T04:39:01.901Z,9.747410
2022-10-25T04:40:01.881Z,9.747434
2022-10-25T04:41:01.891Z,9.747391
2022-10-25T04:42:01.935Z,9.747280
2022-10-25T04:43:01.885Z,9.747326
2022-10-25T04:44:01.845Z,9.747329
2022-10-25T04:45:01.839Z,9.747227
2022-10-25T04:46:01.830Z,9.747333
2022-10-25T04:47:01.820Z,9.747327
2022-10-25T04:48:01.838Z,9.747312
2022-10-25T04:49:01.810Z,9.747506
2022-10-25T04:50:01.801Z,9.747426
2022-10-25T04:51:01.793Z,9.747371
2022-10-25T04:52:01.802Z,9.747301
2022-10-25T04:53:01.806Z,9.747412
2022-10-25T04:54:01.786Z,9.747283
2022-10-25T04:55:01.762Z,9.747316
2022-10-25T04:56:01.762Z,9.747386
2022-10-25T04:57:01.888Z,9.747454
2022-10-25T04:58:01.757Z,9.747366
2022-10-25T04:59:01.737Z,9.747493
2022-10-25T05:00:01.719Z,9.747325
2022-10-25T05:01:01.839Z,9.747339
2022-10-25T05:02:01.707Z,9.747274
2022-10-25T05:03:01.786Z,9.747333
2022-10-25T05:04:01.690Z,9.747368
2022-10-25T05:05:03.391Z,9.747374
2022-10-25T05:06:01.677Z,9.747385
2022-10-25T05:07:01.712Z,9.747442
2022-10-25T05:08:01.693Z,9.747466
2022-10-25T05:09:01.659Z,9.747519
2022-10-25T05:10:01.650Z,9.747577
2022-10-25T05:11:01.644Z,9.747452
2022-10-25T05:12:01.633Z,9.747466
2022-10-25T05:13:01.657Z,9.747491
2022-10-25T05:14:01.622Z,9.747461
2022-10-25T05:15:01.625Z,9.747441
2022-10-25T05:16:01.610Z,9.747511
2022-10-25T05:17:01.617Z,9.747473
2022-10-25T05:18:01.660Z,9.747520
2022-10-25T05:19:01.581Z,9.747576
2022-10-25T05:20:01.579Z,9.747520
2022-10-25T05:21:01.566Z,9.747476
2022-10-25T05:22:01.559Z,9.747463
2022-10-25T05:23:02.620Z,9.747462
2022-10-25T05:24:02.418Z,9.747421
2022-10-25T05:25:01.538Z,9.747458
2022-10-25T05:26:01.540Z,9.747406
2022-10-25T05:27:01.528Z,9.747434
2022-10-25T05:28:01.584Z,9.747443
2022-10-25T05:29:01.922Z,9.747441
2022-10-25T05:30:01.496Z,9.747453
2022-10-25T05:31:01.557Z,9.747442
2022-10-25T05:32:01.478Z,9.747388
2022-10-25T05:33:04.107Z,9.747390
2022-10-25T05:34:01.494Z,9.747433
2022-10-25T05:35:01.464Z,9.747480
2022-10-25T05:36:01.449Z,9.747515
2022-10-25T05:37:01.447Z,9.747396
2022-10-25T05:38:01.435Z,9.747482
2022-10-25T05:39:01.464Z,9.747512
2022-10-25T05:40:01.422Z,9.747540
2022-10-25T05:41:01.428Z,9.747478
2022-10-25T05:42:01.404Z,9.747496
2022-10-25T05:43:01.395Z,9.747492
2022-10-25T05:44:01.423Z,9.747463
2022-10-25T05:45:01.371Z,9.747449
2022-10-25T05:46:01.392Z,9.747430
2022-10-25T05:47:01.435Z,9.747417
2022-10-25T05:48:01.361Z,9.747510
2022-10-25T05:49:01.377Z,9.747339
2022-10-25T05:50:01.347Z,9.747410
2022-10-25T05:51:14.262Z,9.747422
2022-10-25T05:52:03.356Z,9.747402
2022-10-25T05:53:01.314Z,9.747490
2022-10-25T05:54:02.205Z,9.747477
2022-10-25T05:55:01.327Z,9.747479
2022-10-25T05:56:01.296Z,9.747504
2022-10-25T05:57:01.315Z,9.747367
2022-10-25T05:58:01.266Z,9.747394
2022-10-25T05:59:01.293Z,9.747367
2022-10-25T06:00:01.284Z,9.747396
2022-10-25T06:01:02.417Z,9.747429
2022-10-25T06:02:01.322Z,9.747365
2022-10-25T06:03:01.234Z,9.747437
2022-10-25T06:04:01.255Z,9.747434
2022-10-25T06:05:01.222Z,9.747374
2022-10-25T06:06:01.258Z,9.747501
2022-10-25T06:07:01.207Z,9.747468
2022-10-25T06:08:01.207Z,9.747423
2022-10-25T06:09:01.226Z,9.747432
2022-10-25T06:10:01.175Z,9.747419
2022-10-25T06:11:01.175Z,9.747379
2022-10-25T06:12:02.214Z,9.747393
2022-10-25T06:13:01.162Z,9.747411
2022-10-25T06:14:01.182Z,9.747369
2022-10-25T06:15:01.140Z,9.747390
2022-10-25T06:16:01.169Z,9.747433
2022-10-25T06:17:01.131Z,9.747343
2022-10-25T06:18:01.116Z,9.747369
2022-10-25T06:19:01.140Z,9.747480
2022-10-25T06:20:01.096Z,9.747524
2022-10-25T06:21:01.089Z,9.747577
2022-10-25T06:22:01.082Z,9.747548
2022-10-25T06:23:01.074Z,9.747587
2022-10-25T06:24:01.097Z,9.747645
2022-10-25T06:25:01.053Z,9.747492
2022-10-25T06:26:01.054Z,9.747393
2022-10-25T06:27:01.038Z,9.747520
2022-10-25T06:28:01.033Z,9.747456
2022-10-25T06:29:01.052Z,9.747400
2022-10-25T06:30:01.024Z,9.747462
2022-10-25T06:31:01.011Z,9.747495
2022-10-25T06:32:01.000Z,9.747505
2022-10-25T06:33:00.997Z,9.747436
2022-10-25T06:34:01.013Z,9.747418
2022-10-25T06:35:00.981Z,9.747507
2022-10-25T06:36:00.968Z,9.747468
2022-10-25T06:37:00.964Z,9.747293
2022-10-25T06:38:00.976Z,9.747337
2022-10-25T06:39:05.257Z,9.747392
2022-10-25T06:40:02.966Z,9.747416
2022-10-25T06:41:00.927Z,9.747375
2022-10-25T06:42:00.916Z,9.747436
2022-10-25T06:43:00.919Z,9.747535
2022-10-25T06:44:06.178Z,9.747517
2022-10-25T06:45:02.930Z,9.747536
2022-10-25T06:46:01.855Z,9.747441
2022-10-25T06:47:17.762Z,9.747488
2022-10-25T06:48:02.883Z,9.747420
2022-10-25T06:49:00.876Z,9.747366
2022-10-25T06:50:00.991Z,9.747372
2022-10-25T06:51:00.858Z,9.747421
2022-10-25T06:52:00.867Z,9.747492
2022-10-25T06:53:00.841Z,9.747403
2022-10-25T06:54:00.831Z,9.747276
2022-10-25T06:55:00.852Z,9.747288
2022-10-25T06:56:04.527Z,9.747372
2022-10-25T06:57:01.811Z,9.747437
2022-10-25T06:58:00.800Z,9.747411
2022-10-25T06:59:00.801Z,9.747305
2022-10-25T07:01:00.829Z,9.747386
2022-10-25T07:02:00.884Z,9.747360
2022-10-25T07:03:00.760Z,9.747305
2022-10-25T07:04:00.756Z,9.747339
2022-10-25T07:05:00.830Z,9.747340
2022-10-25T07:06:00.734Z,9.747290
2022-10-25T07:07:00.726Z,9.747245
2022-10-25T07:08:00.733Z,9.747301
2022-10-25T07:09:00.741Z,9.747290
2022-10-25T07:10:00.740Z,9.747183
2022-10-25T07:11:00.709Z,9.747265
2022-10-25T07:12:00.694Z,9.747351
2022-10-25T07:13:00.685Z,9.747251
2022-10-25T07:14:00.673Z,9.747260
2022-10-25T07:15:00.701Z,9.747358
2022-10-25T07:16:00.660Z,9.747287
2022-10-25T07:17:00.658Z,9.747231
2022-10-25T07:18:00.653Z,9.747216
2022-10-25T07:19:00.642Z,9.747352
2022-10-25T07:20:00.671Z,9.747337
2022-10-25T07:21:00.625Z,9.747358
2022-10-25T07:22:00.619Z,9.747343
2022-10-25T07:23:01.203Z,9.747334
2022-10-25T07:24:00.604Z,9.747370
2022-10-25T07:25:00.654Z,9.747383
2022-10-25T07:26:00.601Z,9.747393
2022-10-25T07:27:00.580Z,9.747439
2022-10-25T07:28:00.577Z,9.747424
2022-10-25T07:29:00.562Z,9.747354
2022-10-25T07:30:00.586Z,9.747556
2022-10-25T07:31:00.542Z,9.747516
2022-10-25T07:32:01.538Z,9.747429
2022-10-25T07:33:00.528Z,9.747329
2022-10-25T07:34:00.578Z,9.747348
2022-10-25T07:35:00.681Z,9.747351
2022-10-25T07:36:11.083Z,9.747351
2022-10-25T07:37:02.526Z,9.747239
2022-10-25T07:38:00.490Z,9.747328
2022-10-25T07:39:00.507Z,9.747271
2022-10-25T07:40:00.518Z,9.747357
2022-10-25T07:41:00.465Z,9.747298
2022-10-25T07:42:00.466Z,9.747344
2022-10-25T07:43:00.481Z,9.747352
2022-10-25T07:44:00.481Z,9.747332
2022-10-25T07:45:00.492Z,9.747274
2022-10-25T07:46:00.430Z,9.747346
2022-10-25T07:47:00.440Z,9.747467
2022-10-25T07:48:00.413Z,9.747382
2022-10-25T07:49:00.414Z,9.747420
2022-10-25T07:50:00.446Z,9.747427
2022-10-25T07:51:00.391Z,9.747359
2022-10-25T07:52:00.387Z,9.747348
2022-10-25T07:53:00.382Z,9.747378
2022-10-25T07:54:00.360Z,9.747311
2022-10-25T07:55:00.386Z,9.747295
2022-10-25T07:56:00.380Z,9.747313
2022-10-25T07:57:00.353Z,9.747339
2022-10-25T07:58:00.353Z,9.747342
2022-10-25T07:59:00.326Z,9.747410
2022-10-25T08:00:00.320Z,9.747249
2022-10-25T08:01:00.361Z,9.747377
2022-10-25T08:02:00.314Z,9.747411
2022-10-25T08:03:00.400Z,9.747308
2022-10-25T08:04:00.299Z,9.747322
2022-10-25T08:05:00.295Z,9.747378
2022-10-25T08:06:00.434Z,9.747438
2022-10-25T08:07:00.285Z,9.747485
2022-10-25T08:08:00.260Z,9.747491
2022-10-25T08:09:05.578Z,9.747340
2022-10-25T08:10:01.275Z,9.747358
2022-10-25T08:11:00.291Z,9.747298
2022-10-25T08:12:00.266Z,9.747344
2022-10-25T08:13:00.238Z,9.747315
2022-10-25T08:14:00.202Z,9.747221
2022-10-25T08:15:01.225Z,9.747455
2022-10-25T08:16:00.231Z,9.747348
2022-10-25T08:17:00.191Z,9.747319
2022-10-25T08:18:00.177Z,9.747372
2022-10-25T08:19:00.183Z,9.747418
2022-10-25T08:20:00.200Z,9.747367
2022-10-25T08:21:03.052Z,9.747411
2022-10-25T08:22:01.159Z,9.747379
2022-10-25T08:23:00.154Z,9.747419
2022-10-25T08:24:00.139Z,9.747519
2022-10-25T08:25:00.184Z,9.747413
2022-10-25T08:26:00.144Z,9.747348
2022-10-25T08:27:00.122Z,9.747392
2022-10-25T08:28:00.107Z,9.747368
2022-10-25T08:29:00.257Z,9.747357
2022-10-25T08:30:00.112Z,9.747195
2022-10-25T08:31:00.138Z,9.747236
2022-10-25T08:32:00.102Z,9.747257
2022-10-25T08:33:00.103Z,9.747252
2022-10-25T08:34:00.165Z,9.747223
2022-10-25T08:35:00.049Z,9.747287
2022-10-25T08:36:00.091Z,9.747364
2022-10-25T08:37:00.049Z,9.747316
2022-10-25T08:38:00.037Z,9.747409
2022-10-25T08:39:00.037Z,9.747380
2022-10-25T08:40:00.016Z,9.747393
2022-10-25T08:41:00.087Z,9.747491
2022-10-25T08:42:00.012Z,9.747595
2022-10-25T08:43:00.003Z,9.747484
2022-10-25T08:45:00.050Z,9.747559
2022-10-25T08:46:00.006Z,9.747755
2022-10-25T08:47:00.010Z,9.747677
2022-10-25T08:47:59.952Z,9.747421
2022-10-25T08:48:59.953Z,9.747611
2022-10-25T08:49:59.939Z,9.747688
2022-10-25T08:50:59.962Z,9.747524
2022-10-25T08:51:59.931Z,9.747432
2022-10-25T08:52:59.920Z,9.747581
2022-10-25T08:53:59.968Z,9.747676
2022-10-25T08:55:03.161Z,9.747577
2022-10-25T08:56:17.477Z,9.747293
2022-10-25T08:57:15.031Z,9.747437
2022-10-25T08:58:01.895Z,9.747506
2022-10-25T08:58:59.873Z,9.747443
2022-10-25T08:59:59.863Z,9.747488
2022-10-25T09:00:59.918Z,9.747497
2022-10-25T09:01:59.992Z,9.747707
2022-10-25T09:02:59.854Z,9.747750
2022-10-25T09:03:59.829Z,9.747589
2022-10-25T09:04:59.831Z,9.747398
2022-10-25T09:05:59.870Z,9.747302
2022-10-25T09:07:00.848Z,9.747273
2022-10-25T09:07:59.798Z,9.747395
2022-10-25T09:08:59.812Z,9.747521
2022-10-25T09:09:59.782Z,9.747576
2022-10-25T09:10:59.945Z,9.747607
2022-10-25T09:11:59.795Z,9.747464
2022-10-25T09:12:59.798Z,9.747508
2022-10-25T09:14:00.812Z,9.747448
2022-10-25T09:14:59.835Z,9.747527
2022-10-25T09:16:01.794Z,9.747408
2022-10-25T09:17:01.425Z,9.747351
2022-10-25T09:18:02.393Z,9.747459
2022-10-25T09:18:59.715Z,9.747419
2022-10-25T09:19:59.708Z,9.747443
2022-10-25T09:20:59.712Z,9.747498
2022-10-25T09:21:59.720Z,9.747450
2022-10-25T09:22:59.691Z,9.747501
2022-10-25T09:23:59.677Z,9.747231
2022-10-25T09:24:59.669Z,9.747174
2022-10-25T09:25:59.690Z,9.747326
2022-10-25T09:26:59.655Z,9.747198
2022-10-25T09:27:59.647Z,9.747237
2022-10-25T09:28:59.682Z,9.747448
2022-10-25T09:30:02.577Z,9.747394
2022-10-25T09:31:00.649Z,9.747322
2022-10-25T09:31:59.609Z,9.747281
2022-10-25T09:32:59.598Z,9.747392
2022-10-25T09:34:03.086Z,9.747422
2022-10-25T09:34:59.590Z,9.747430
2022-10-25T09:35:59.613Z,9.747381
2022-10-25T09:36:59.574Z,9.747367
2022-10-25T09:37:59.569Z,9.747334
2022-10-25T09:38:59.562Z,9.747577
2022-10-25T09:39:59.553Z,9.747750
2022-10-25T09:40:59.556Z,9.747605
2022-10-25T09:41:59.564Z,9.747390
2022-10-25T09:42:59.582Z,9.747370
2022-10-25T09:43:59.531Z,9.747248
2022-10-25T09:44:59.531Z,9.747388
2022-10-25T09:45:59.517Z,9.747317
2022-10-25T09:46:59.529Z,9.747304
2022-10-25T09:47:59.513Z,9.747370
2022-10-25T09:48:59.494Z,9.747342
2022-10-25T09:49:59.487Z,9.747339
2022-10-25T09:50:59.474Z,9.747346
2022-10-25T09:51:59.494Z,9.747374
2022-10-25T09:53:59.457Z,9.747289
2022-10-25T09:54:59.449Z,9.747187
2022-10-25T09:55:59.455Z,9.747321
2022-10-25T09:56:59.459Z,9.747117
2022-10-25T09:57:59.430Z,9.747252
2022-10-25T09:58:59.417Z,9.747328
2022-10-25T09:59:59.407Z,9.747461
2022-10-25T10:00:59.402Z,9.747417
2022-10-25T10:01:59.518Z,9.747329
2022-10-25T10:02:59.439Z,9.747438
2022-10-25T10:04:00.084Z,9.747352
2022-10-25T10:05:00.383Z,9.747211
2022-10-25T10:05:59.368Z,9.747119
2022-10-25T10:06:59.389Z,9.747348
2022-10-25T10:07:59.354Z,9.747455
2022-10-25T10:08:59.341Z,9.747340
2022-10-25T10:09:59.344Z,9.747374
2022-10-25T10:10:59.331Z,9.747380
2022-10-25T10:11:59.368Z,9.747375
2022-10-25T10:14:00.311Z,9.747349
2022-10-25T10:14:59.313Z,9.747421
2022-10-25T10:15:59.294Z,9.747305
2022-10-25T10:16:59.317Z,9.747495
2022-10-25T10:17:59.287Z,9.747404
2022-10-25T10:18:59.269Z,9.747437
2022-10-25T10:19:59.275Z,9.747462
2022-10-25T10:20:59.257Z,9.747359
2022-10-25T10:21:59.296Z,9.747400
2022-10-25T10:22:59.240Z,9.747284
2022-10-25T10:23:59.244Z,9.747309
2022-10-25T10:24:59.234Z,9.747369
2022-10-25T10:25:59.221Z,9.747306
2022-10-25T10:26:59.262Z,9.747354
2022-10-25T10:27:59.213Z,9.747358
2022-10-25T10:28:59.201Z,9.747419
2022-10-25T10:29:59.189Z,9.747355
2022-10-25T10:30:59.187Z,9.747306
2022-10-25T10:31:59.193Z,9.747274
2022-10-25T10:32:59.185Z,9.747328
2022-10-25T10:33:59.156Z,9.747352
2022-10-25T10:34:59.151Z,9.747398
2022-10-25T10:35:59.144Z,9.747465
2022-10-25T10:36:59.173Z,9.747435
2022-10-25T10:37:59.133Z,9.747346
2022-10-25T10:38:59.127Z,9.747319
2022-10-25T10:39:59.110Z,9.747375
2022-10-25T10:40:59.110Z,9.747331
2022-10-25T10:41:59.153Z,9.747442
2022-10-25T10:42:59.318Z,9.747320
2022-10-25T10:43:59.085Z,9.747326
2022-10-25T10:44:59.080Z,9.747298
2022-10-25T10:45:59.083Z,9.747346
2022-10-25T10:46:59.102Z,9.747212
2022-10-25T10:47:59.052Z,9.747280
2022-10-25T10:48:59.071Z,9.747645
2022-10-25T10:49:59.040Z,9.747566
2022-10-25T10:50:59.045Z,9.747450
2022-10-25T10:51:59.152Z,9.747391
2022-10-25T10:53:00.146Z,9.747315
2022-10-25T10:53:59.013Z,9.747466
2022-10-25T10:54:59.006Z,9.747407
2022-10-25T10:55:59.001Z,9.747519
2022-10-25T10:56:59.034Z,9.747635
2022-10-25T10:57:59.000Z,9.747627
2022-10-25T10:58:58.985Z,9.747584
2022-10-25T10:59:58.989Z,9.747474
2022-10-25T11:00:58.962Z,9.747394
2022-10-25T11:01:59.064Z,9.747358
2022-10-25T11:02:58.965Z,9.747480
2022-10-25T11:04:00.790Z,9.747526
2022-10-25T11:04:58.927Z,9.747561
2022-10-25T11:05:58.943Z,9.747542
2022-10-25T11:06:58.918Z,9.747562
2022-10-25T11:07:58.922Z,9.747488
2022-10-25T11:08:58.895Z,9.747416
2022-10-25T11:09:58.917Z,9.747408
2022-10-25T11:10:58.885Z,9.747432
2022-10-25T11:11:58.859Z,9.747416
2022-10-25T11:12:59.890Z,9.747475
2022-10-25T11:13:58.861Z,9.747502
2022-10-25T11:14:58.874Z,9.747419
2022-10-25T11:15:58.837Z,9.747517
2022-10-25T11:16:58.834Z,9.747373
2022-10-25T11:17:58.870Z,9.747387
2022-10-25T11:18:58.811Z,9.747347
2022-10-25T11:19:58.806Z,9.747469
2022-10-25T11:20:58.896Z,9.747486
2022-10-25T11:21:58.875Z,9.747362
2022-10-25T11:23:01.286Z,9.747460
2022-10-25T11:23:59.775Z,9.747502
2022-10-25T11:24:58.765Z,9.747578
2022-10-25T11:25:58.771Z,9.747475
2022-10-25T11:26:58.761Z,9.747391
2022-10-25T11:27:58.784Z,9.747352
2022-10-25T11:28:58.742Z,9.747334
2022-10-25T11:29:58.731Z,9.747437
2022-10-25T11:30:58.728Z,9.747570
2022-10-25T11:31:58.724Z,9.747430
2022-10-25T11:32:58.739Z,9.747312
2022-10-25T11:33:58.698Z,9.747300
2022-10-25T11:34:58.698Z,9.747288
2022-10-25T11:35:58.687Z,9.747430
2022-10-25T11:36:58.676Z,9.747466
2022-10-25T11:37:58.779Z,9.747427
2022-10-25T11:38:58.652Z,9.747351
2022-10-25T11:39:58.654Z,9.747437
2022-10-25T11:40:58.646Z,9.747397
2022-10-25T11:41:58.634Z,9.747460
2022-10-25T11:42:58.651Z,9.747366
2022-10-25T11:43:58.621Z,9.747416
2022-10-25T11:44:58.612Z,9.747356
2022-10-25T11:45:58.605Z,9.747386
2022-10-25T11:46:58.631Z,9.747450
2022-10-25T11:47:58.611Z,9.747300